Terminal Aerodrome Forecast
Issued by NWS Wakefield, VA

Home | Current Version | Previous Version | Text Only | Print | Product List | Glossary On
Versions: 1 2 3 4 5 6 7 8 9 10 11 12 13 14 15 16 17 18 19
395
FTUS41 KAKQ 171159 CCA
TAFSBY
TAF COR
KSBY 171159Z 1712/1812 18003KT P6SM VCSH OVC007
      TEMPO 1712/1716 OVC010
     FM171600 19006KT 6SM -RA OVC008
     FM180000 20009KT P6SM OVC010=

USA.gov is the U.S. government's official web portal to all federal, state and local government web resources and services.